createdAt,value
2023-02-09T00:00:07.197Z,90.36
2023-02-09T00:02:34.044Z,90.13
2023-02-09T00:05:00.817Z,90.08
2023-02-09T00:07:27.607Z,89.93
2023-02-09T00:09:54.316Z,89.81
2023-02-09T00:12:39.695Z,89.68
2023-02-09T00:15:07.258Z,89.74
2023-02-09T00:17:35.960Z,90.02
2023-02-09T00:20:05.355Z,89.82
2023-02-09T00:22:32.313Z,89.99
2023-02-09T00:24:59.164Z,89.82
2023-02-09T00:27:25.986Z,90.13
2023-02-09T00:29:52.802Z,89.68
2023-02-09T00:32:19.554Z,90.08
2023-02-09T00:34:46.399Z,89.62
2023-02-09T00:37:13.361Z,89.69
2023-02-09T00:39:40.106Z,89.68
2023-02-09T00:42:06.853Z,89.77
2023-02-09T00:44:40.092Z,89.75
2023-02-09T00:47:08.650Z,90.03
2023-02-09T00:49:35.895Z,89.97
2023-02-09T00:52:02.763Z,90.00
2023-02-09T00:54:29.653Z,89.98
2023-02-09T00:56:56.495Z,90.08
2023-02-09T00:59:23.287Z,90.12
2023-02-09T01:01:50.056Z,89.68
2023-02-09T01:04:16.884Z,89.95
2023-02-09T01:06:43.720Z,90.15
2023-02-09T01:09:10.396Z,90.01
2023-02-09T01:11:37.150Z,89.99
2023-02-09T01:14:04.649Z,90.37
2023-02-09T01:16:32.311Z,89.85
2023-02-09T01:19:01.318Z,90.31
2023-02-09T01:21:28.704Z,90.18
2023-02-09T01:23:55.893Z,90.11
2023-02-09T01:26:22.996Z,89.87
2023-02-09T01:28:53.337Z,90.15
2023-02-09T01:31:29.946Z,90.06
2023-02-09T01:33:58.893Z,89.96
2023-02-09T01:36:25.974Z,89.85
2023-02-09T01:38:56.368Z,89.82
2023-02-09T01:41:23.471Z,90.03
2023-02-09T01:44:00.306Z,90.12
2023-02-09T01:46:30.088Z,90.36
2023-02-09T01:49:06.404Z,90.02
2023-02-09T01:51:38.345Z,90.10
2023-02-09T01:54:09.685Z,89.86
2023-02-09T01:56:40.791Z,90.02
2023-02-09T01:59:09.658Z,90.07
2023-02-09T02:01:37.764Z,90.24
2023-02-09T02:04:05.635Z,89.92
2023-02-09T02:06:32.614Z,89.97
2023-02-09T02:09:11.325Z,90.16
2023-02-09T02:11:40.504Z,90.24
2023-02-09T02:14:07.233Z,90.28
2023-02-09T02:17:02.163Z,90.43
2023-02-09T02:20:06.543Z,90.49
2023-02-09T02:22:33.233Z,90.29
2023-02-09T02:25:36.979Z,90.30
2023-02-09T02:28:41.814Z,90.18
2023-02-09T02:31:29.931Z,90.56
2023-02-09T02:34:20.348Z,90.33
2023-02-09T02:37:10.090Z,90.46
2023-02-09T02:39:58.589Z,90.70
2023-02-09T02:42:50.072Z,90.43
2023-02-09T02:45:38.833Z,90.49
2023-02-09T02:48:18.648Z,90.67
2023-02-09T02:50:54.581Z,90.38
2023-02-09T02:53:26.717Z,90.70
2023-02-09T02:55:56.709Z,90.77
2023-02-09T02:58:25.868Z,90.91
2023-02-09T03:00:57.615Z,91.05
2023-02-09T03:03:32.865Z,90.71
2023-02-09T03:06:03.636Z,90.63
2023-02-09T03:08:30.689Z,90.89
2023-02-09T03:10:58.263Z,90.98
2023-02-09T03:13:54.242Z,90.90
2023-02-09T03:16:26.913Z,90.55
2023-02-09T03:19:04.754Z,90.94
2023-02-09T03:21:46.584Z,90.78
2023-02-09T03:24:24.628Z,90.77
2023-02-09T03:26:57.738Z,91.05
2023-02-09T03:29:27.737Z,90.96
2023-02-09T03:31:55.293Z,91.13
2023-02-09T03:34:22.048Z,90.78
2023-02-09T03:36:54.720Z,91.12
2023-02-09T03:39:21.819Z,90.89
2023-02-09T03:41:48.574Z,91.23
2023-02-09T03:44:27.649Z,90.63
2023-02-09T03:47:00.521Z,90.95
2023-02-09T03:49:31.799Z,90.73
2023-02-09T03:52:00.913Z,91.09
2023-02-09T03:54:29.828Z,90.64
2023-02-09T03:56:57.819Z,90.99
2023-02-09T03:59:28.053Z,90.96
2023-02-09T04:01:56.635Z,90.78
2023-02-09T04:04:24.369Z,91.08
2023-02-09T04:06:51.404Z,90.86
2023-02-09T04:09:18.258Z,91.08
2023-02-09T04:11:45.117Z,91.09
2023-02-09T04:14:11.861Z,91.17
2023-02-09T04:16:39.045Z,91.48
2023-02-09T04:19:06.549Z,91.07
2023-02-09T04:21:33.283Z,91.17
2023-02-09T04:24:00.043Z,90.95
2023-02-09T04:26:26.833Z,91.28
2023-02-09T04:28:54.663Z,90.91
2023-02-09T04:31:21.429Z,91.19
2023-02-09T04:33:48.249Z,90.98
2023-02-09T04:36:15.451Z,91.03
2023-02-09T04:38:42.170Z,90.96
2023-02-09T04:41:09.848Z,91.06
2023-02-09T04:43:36.762Z,91.22
2023-02-09T04:46:03.805Z,91.30
2023-02-09T04:48:31.126Z,91.22
2023-02-09T04:50:58.149Z,91.39
2023-02-09T04:53:25.192Z,91.25
2023-02-09T04:55:52.924Z,91.17
2023-02-09T04:58:40.284Z,91.21
2023-02-09T05:01:09.436Z,91.44
2023-02-09T05:03:36.233Z,91.13
2023-02-09T05:06:05.096Z,91.19
2023-02-09T05:08:32.506Z,91.34
2023-02-09T05:10:59.327Z,91.04
2023-02-09T05:13:26.732Z,90.94
2023-02-09T05:15:54.055Z,91.45
2023-02-09T05:18:21.515Z,91.15
2023-02-09T05:20:48.966Z,91.31
2023-02-09T05:23:16.373Z,91.37
2023-02-09T05:25:43.217Z,91.43
2023-02-09T05:28:09.939Z,91.03
2023-02-09T05:30:37.709Z,91.50
2023-02-09T05:33:04.781Z,91.41
2023-02-09T05:35:31.732Z,90.99
2023-02-09T05:37:58.427Z,91.14
2023-02-09T05:40:25.287Z,91.34
2023-02-09T05:42:51.981Z,91.09
2023-02-09T05:45:18.874Z,91.24
2023-02-09T05:47:46.856Z,90.91
2023-02-09T05:50:13.894Z,91.04
2023-02-09T05:52:40.662Z,91.21
2023-02-09T05:55:07.443Z,91.00
2023-02-09T05:57:34.177Z,91.22
2023-02-09T06:00:01.019Z,91.20
2023-02-09T06:02:27.983Z,91.22
2023-02-09T06:04:56.870Z,90.86
2023-02-09T06:07:23.624Z,91.39
2023-02-09T06:09:50.501Z,90.84
2023-02-09T06:12:17.235Z,90.95
2023-02-09T06:14:43.997Z,91.13
2023-02-09T06:17:10.798Z,90.96
2023-02-09T06:19:38.274Z,90.70
2023-02-09T06:22:05.522Z,90.95
2023-02-09T06:24:32.222Z,91.05
2023-02-09T06:26:59.021Z,90.73
2023-02-09T06:29:25.840Z,90.89
2023-02-09T06:31:52.998Z,90.99
2023-02-09T06:34:19.806Z,90.73
2023-02-09T06:36:46.512Z,90.77
2023-02-09T06:39:13.222Z,90.81
2023-02-09T06:41:40.063Z,90.56
2023-02-09T06:44:06.844Z,90.59
2023-02-09T06:46:33.686Z,90.45
2023-02-09T06:49:00.568Z,90.84
2023-02-09T06:51:27.495Z,90.82
2023-02-09T06:53:54.311Z,90.81
2023-02-09T06:56:21.467Z,90.75
2023-02-09T06:58:48.361Z,90.38
2023-02-09T07:01:16.221Z,90.52
2023-02-09T07:03:43.381Z,90.33
2023-02-09T07:06:16.257Z,90.33
2023-02-09T07:08:43.687Z,90.06
2023-02-09T07:11:13.732Z,89.92
2023-02-09T07:13:40.507Z,89.94
2023-02-09T07:16:09.401Z,90.20
2023-02-09T07:18:37.238Z,90.18
2023-02-09T07:21:08.779Z,89.75
2023-02-09T07:23:36.448Z,89.75
2023-02-09T07:26:08.954Z,89.96
2023-02-09T07:28:37.990Z,89.77
2023-02-09T07:31:07.828Z,89.59
2023-02-09T07:33:35.422Z,89.46
2023-02-09T07:36:06.788Z,89.48
2023-02-09T07:38:34.135Z,89.43
2023-02-09T07:41:02.666Z,89.20
2023-02-09T07:43:29.629Z,89.37
2023-02-09T07:46:05.272Z,89.11
2023-02-09T07:48:33.062Z,89.44
2023-02-09T07:51:00.357Z,89.25
2023-02-09T07:53:28.353Z,88.97
2023-02-09T07:55:55.524Z,88.75
2023-02-09T07:58:23.111Z,88.86
2023-02-09T08:00:51.144Z,88.69
2023-02-09T08:03:21.425Z,88.52
2023-02-09T08:05:56.988Z,88.51
2023-02-09T08:08:23.748Z,88.26
2023-02-09T08:10:51.070Z,88.23
2023-02-09T08:13:18.155Z,88.12
2023-02-09T08:15:49.302Z,88.44
2023-02-09T08:18:21.629Z,88.33
2023-02-09T08:20:52.191Z,87.96
2023-02-09T08:23:28.864Z,88.02
2023-02-09T08:25:56.968Z,87.67
2023-02-09T08:28:34.820Z,88.06
2023-02-09T08:31:11.262Z,87.58
2023-02-09T08:33:40.150Z,87.70
2023-02-09T08:36:07.268Z,87.57
2023-02-09T08:38:36.810Z,87.45
2023-02-09T08:41:08.367Z,87.50
2023-02-09T08:43:35.710Z,87.04
2023-02-09T08:46:11.668Z,86.87
2023-02-09T08:48:40.519Z,86.75
2023-02-09T08:51:08.696Z,86.96
2023-02-09T08:53:35.614Z,86.60
2023-02-09T08:56:02.389Z,86.52
2023-02-09T08:58:30.400Z,86.62
2023-02-09T09:00:57.521Z,86.54
2023-02-09T09:03:30.017Z,86.38
2023-02-09T09:06:01.722Z,86.31
2023-02-09T09:08:29.310Z,86.34
2023-02-09T09:10:56.267Z,86.27
2023-02-09T09:13:24.412Z,86.46
2023-02-09T09:15:52.618Z,86.08
2023-02-09T09:18:19.454Z,86.25
2023-02-09T09:20:46.233Z,85.97
2023-02-09T09:23:13.325Z,86.04
2023-02-09T09:25:40.576Z,85.68
2023-02-09T09:28:08.644Z,86.07
2023-02-09T09:30:36.815Z,85.67
2023-02-09T09:33:03.780Z,85.52
2023-02-09T09:35:31.794Z,85.71
2023-02-09T09:37:58.767Z,85.48
2023-02-09T09:40:30.005Z,85.14
2023-02-09T09:43:00.745Z,85.41
2023-02-09T09:45:30.080Z,85.08
2023-02-09T09:47:57.502Z,84.98
2023-02-09T09:50:39.191Z,84.79
2023-02-09T09:53:33.427Z,84.85
2023-02-09T09:56:08.222Z,84.53
2023-02-09T09:58:39.214Z,84.27
2023-02-09T10:01:06.911Z,84.67
2023-02-09T10:03:33.707Z,84.51
2023-02-09T10:06:11.537Z,84.32
2023-02-09T10:08:55.563Z,84.23
2023-02-09T10:11:32.358Z,84.01
2023-02-09T10:13:59.474Z,84.00
2023-02-09T10:16:29.224Z,83.95
2023-02-09T10:19:01.937Z,83.93
2023-02-09T10:21:31.438Z,83.42
2023-02-09T10:24:00.856Z,83.72
2023-02-09T10:26:33.215Z,83.52
2023-02-09T10:29:07.306Z,83.00
2023-02-09T10:31:40.487Z,83.29
2023-02-09T10:34:15.526Z,83.32
2023-02-09T10:36:51.878Z,82.58
2023-02-09T10:39:30.473Z,82.96
2023-02-09T10:42:14.416Z,82.59
2023-02-09T10:44:48.957Z,82.24
2023-02-09T10:47:23.524Z,82.37
2023-02-09T10:49:55.189Z,82.30
2023-02-09T10:52:24.011Z,81.98
2023-02-09T10:54:56.944Z,81.88
2023-02-09T10:57:30.175Z,81.72
2023-02-09T11:00:00.262Z,81.40
2023-02-09T11:02:35.642Z,81.14
2023-02-09T11:05:04.362Z,81.38
2023-02-09T11:07:41.211Z,81.33
2023-02-09T11:10:12.858Z,81.20
2023-02-09T11:12:39.628Z,80.87
2023-02-09T11:15:14.203Z,80.85
2023-02-09T11:17:50.981Z,80.90
2023-02-09T11:20:50.281Z,80.46
2023-02-09T11:23:38.355Z,80.35
2023-02-09T11:26:17.642Z,80.20
2023-02-09T11:28:48.062Z,80.05
2023-02-09T11:31:27.239Z,80.11
2023-02-09T11:34:00.126Z,79.76
2023-02-09T11:36:39.010Z,79.58
2023-02-09T11:39:19.628Z,79.61
2023-02-09T11:42:13.968Z,79.61
2023-02-09T11:44:56.908Z,79.29
2023-02-09T11:47:33.409Z,79.32
2023-02-09T11:50:04.985Z,79.10
2023-02-09T11:52:38.350Z,78.85
2023-02-09T11:55:38.474Z,78.60
2023-02-09T11:58:33.877Z,78.68
2023-02-09T12:01:42.772Z,78.50
2023-02-09T12:04:15.840Z,78.54
2023-02-09T12:06:48.555Z,78.57
2023-02-09T12:09:24.438Z,78.18
2023-02-09T12:12:20.496Z,78.41
2023-02-09T12:15:00.357Z,78.21
2023-02-09T12:17:39.204Z,77.85
2023-02-09T12:20:06.834Z,77.85
2023-02-09T12:22:33.689Z,77.92
2023-02-09T12:25:12.551Z,77.64
2023-02-09T12:27:44.004Z,77.72
2023-02-09T12:30:30.313Z,77.60
2023-02-09T12:33:24.614Z,77.48
2023-02-09T12:36:09.344Z,77.48
2023-02-09T12:38:56.826Z,77.51
2023-02-09T12:41:42.900Z,77.36
2023-02-09T12:44:09.551Z,77.51
2023-02-09T12:46:45.635Z,77.43
2023-02-09T12:49:12.291Z,77.30
2023-02-09T12:51:47.816Z,77.53
2023-02-09T12:54:41.004Z,77.43
2023-02-09T12:57:16.815Z,77.06
2023-02-09T12:59:56.290Z,76.79
2023-02-09T13:02:29.430Z,76.71
2023-02-09T13:04:56.064Z,76.77
2023-02-09T13:07:29.984Z,76.58
2023-02-09T13:10:00.737Z,76.13
2023-02-09T13:12:39.243Z,76.10
2023-02-09T13:15:13.285Z,76.11
2023-02-09T13:18:06.915Z,76.05
2023-02-09T13:20:36.596Z,75.75
2023-02-09T13:23:36.207Z,75.61
2023-02-09T13:26:17.787Z,75.45
2023-02-09T13:28:44.574Z,75.03
2023-02-09T13:31:26.162Z,75.08
2023-02-09T13:33:58.050Z,75.22
2023-02-09T13:37:06.437Z,75.06
2023-02-09T13:39:37.794Z,74.91
2023-02-09T13:42:25.811Z,74.69
2023-02-09T13:44:55.653Z,74.74
2023-02-09T13:47:23.130Z,74.41
2023-02-09T13:50:00.898Z,74.05
2023-02-09T13:52:33.687Z,74.11
2023-02-09T13:55:32.435Z,73.59
2023-02-09T13:58:02.974Z,73.77
2023-02-09T14:00:42.595Z,73.75
2023-02-09T14:03:20.384Z,73.43
2023-02-09T14:05:50.256Z,73.33
2023-02-09T14:08:19.074Z,73.26
2023-02-09T14:11:07.497Z,73.19
2023-02-09T14:13:42.666Z,73.09
2023-02-09T14:16:15.729Z,72.83
2023-02-09T14:19:00.597Z,72.50
2023-02-09T14:21:40.174Z,72.38
2023-02-09T14:24:19.243Z,72.16
2023-02-09T14:26:48.313Z,72.16
2023-02-09T14:29:18.202Z,71.75
2023-02-09T14:32:33.275Z,71.33
2023-02-09T14:35:17.438Z,71.30
2023-02-09T14:37:44.898Z,71.04
2023-02-09T14:40:11.972Z,71.31
2023-02-09T14:42:57.737Z,71.15
2023-02-09T14:45:32.198Z,70.62
2023-02-09T14:47:58.948Z,70.28
2023-02-09T14:50:25.713Z,69.91
2023-02-09T14:53:05.300Z,69.64
2023-02-09T14:55:33.716Z,69.69
2023-02-09T14:58:00.481Z,69.67
2023-02-09T15:00:29.221Z,69.40
2023-02-09T15:02:57.202Z,69.35
2023-02-09T15:05:26.091Z,69.10
2023-02-09T15:07:56.379Z,69.12
2023-02-09T15:10:27.976Z,68.98
2023-02-09T15:12:55.440Z,68.66
2023-02-09T15:15:23.428Z,68.67
2023-02-09T15:17:50.493Z,68.42
2023-02-09T15:20:21.499Z,68.26
2023-02-09T15:22:48.193Z,68.36
2023-02-09T15:25:15.687Z,68.24
2023-02-09T15:27:51.947Z,68.24
2023-02-09T15:30:24.751Z,68.15
2023-02-09T15:32:51.659Z,68.25
2023-02-09T15:35:21.548Z,68.08
2023-02-09T15:37:57.577Z,68.05
2023-02-09T15:40:50.289Z,67.93
2023-02-09T15:43:39.451Z,68.05
2023-02-09T15:46:07.353Z,68.22
2023-02-09T15:48:36.924Z,68.16
2023-02-09T15:51:03.899Z,67.99
2023-02-09T15:53:32.089Z,67.91
2023-02-09T15:55:59.661Z,67.72
2023-02-09T15:58:35.274Z,67.99
2023-02-09T16:01:02.485Z,68.02
2023-02-09T16:03:31.779Z,68.22
2023-02-09T16:06:01.701Z,67.89
2023-02-09T16:08:32.570Z,68.06
2023-02-09T16:11:01.159Z,67.83
2023-02-09T16:13:28.182Z,67.78
2023-02-09T16:16:00.319Z,68.11
2023-02-09T16:18:34.812Z,68.32
2023-02-09T16:21:01.554Z,68.38
2023-02-09T16:23:28.317Z,68.38
2023-02-09T16:25:55.359Z,68.31
2023-02-09T16:28:22.359Z,68.41
2023-02-09T16:30:57.665Z,68.49
2023-02-09T16:33:25.954Z,68.75
2023-02-09T16:35:58.972Z,68.79
2023-02-09T16:38:26.999Z,68.96
2023-02-09T16:40:55.638Z,69.04
2023-02-09T16:43:23.165Z,69.01
2023-02-09T16:46:02.820Z,69.07
2023-02-09T16:48:32.436Z,69.08
2023-02-09T16:50:59.706Z,69.30
2023-02-09T16:53:32.881Z,69.27
2023-02-09T16:56:05.812Z,69.49
2023-02-09T16:58:32.612Z,69.40
2023-02-09T17:00:59.413Z,69.59
2023-02-09T17:03:31.558Z,69.74
2023-02-09T17:05:58.410Z,69.84
2023-02-09T17:08:27.721Z,69.93
2023-02-09T17:10:56.381Z,70.04
2023-02-09T17:13:23.639Z,70.05
2023-02-09T17:15:59.148Z,70.04
2023-02-09T17:18:31.051Z,70.12
2023-02-09T17:21:02.099Z,70.10
2023-02-09T17:23:30.906Z,70.36
2023-02-09T17:25:57.995Z,70.35
2023-02-09T17:28:26.625Z,70.50
2023-02-09T17:30:57.664Z,70.37
2023-02-09T17:33:35.752Z,70.30
2023-02-09T17:36:25.353Z,70.54
2023-02-09T17:38:50.820Z,70.34
2023-02-09T17:41:26.700Z,70.53
2023-02-09T17:43:54.370Z,70.44
2023-02-09T17:46:21.436Z,70.53
2023-02-09T17:48:49.009Z,70.86
2023-02-09T17:51:28.823Z,70.87
2023-02-09T17:53:55.982Z,70.89
2023-02-09T17:56:22.732Z,70.81
2023-02-09T17:58:49.612Z,70.85
2023-02-09T18:01:27.868Z,70.84
2023-02-09T18:04:01.801Z,70.69
2023-02-09T18:06:37.597Z,70.98
2023-02-09T18:09:08.511Z,70.92
2023-02-09T18:11:52.492Z,71.01
2023-02-09T18:14:21.441Z,71.06
2023-02-09T18:16:48.487Z,71.08
2023-02-09T18:19:18.774Z,70.98
2023-02-09T18:21:54.596Z,70.79
2023-02-09T18:24:22.999Z,71.21
2023-02-09T18:26:51.263Z,70.91
2023-02-09T18:29:20.362Z,70.98
2023-02-09T18:31:47.163Z,71.31
2023-02-09T18:34:15.298Z,71.22
2023-02-09T18:36:42.477Z,71.38
2023-02-09T18:39:09.297Z,71.27
2023-02-09T18:41:36.047Z,71.42
2023-02-09T18:44:02.910Z,71.37
2023-02-09T18:46:29.744Z,71.47
2023-02-09T18:48:56.698Z,71.46
2023-02-09T18:51:23.686Z,71.50
2023-02-09T18:53:51.339Z,71.64
2023-02-09T18:56:22.627Z,71.63
2023-02-09T18:58:50.331Z,71.74
2023-02-09T19:01:20.524Z,71.64
2023-02-09T19:03:54.292Z,71.88
2023-02-09T19:06:22.755Z,71.76
2023-02-09T19:08:50.517Z,71.93
2023-02-09T19:11:19.882Z,71.85
2023-02-09T19:14:05.716Z,71.68
2023-02-09T19:16:32.779Z,71.83
2023-02-09T19:19:00.794Z,71.90
2023-02-09T19:21:28.365Z,71.74
2023-02-09T19:23:55.456Z,71.69
2023-02-09T19:26:22.346Z,71.75
2023-02-09T19:28:49.266Z,71.68
2023-02-09T19:31:17.795Z,72.02
2023-02-09T19:33:44.704Z,71.99
2023-02-09T19:36:12.069Z,71.86
2023-02-09T19:38:38.860Z,71.94
2023-02-09T19:41:12.561Z,71.88
2023-02-09T19:43:40.092Z,72.03
2023-02-09T19:46:09.999Z,72.09
2023-02-09T19:48:38.527Z,71.90
2023-02-09T19:51:06.827Z,71.96
2023-02-09T19:53:33.974Z,72.18
2023-02-09T19:56:00.893Z,71.99
2023-02-09T19:58:27.992Z,72.25
2023-02-09T20:00:56.195Z,72.37
2023-02-09T20:03:23.959Z,72.27
2023-02-09T20:05:51.498Z,72.27
2023-02-09T20:08:20.499Z,72.22
2023-02-09T20:10:47.636Z,72.38
2023-02-09T20:13:15.939Z,72.40
2023-02-09T20:15:44.202Z,72.17
2023-02-09T20:18:13.436Z,72.41
2023-02-09T20:20:43.360Z,72.33
2023-02-09T20:23:10.487Z,72.48
2023-02-09T20:25:41.034Z,72.10
2023-02-09T20:28:08.078Z,72.57
2023-02-09T20:30:35.294Z,72.58
2023-02-09T20:33:02.020Z,72.46
2023-02-09T20:35:28.766Z,72.58
2023-02-09T20:37:55.647Z,72.52
2023-02-09T20:40:22.808Z,72.57
2023-02-09T20:43:08.069Z,72.51
2023-02-09T20:45:53.679Z,72.72
2023-02-09T20:48:20.457Z,72.51
2023-02-09T20:50:47.515Z,72.60
2023-02-09T20:53:14.479Z,72.89
2023-02-09T20:55:42.757Z,72.52
2023-02-09T20:58:11.903Z,72.56
2023-02-09T21:00:39.357Z,72.67
2023-02-09T21:03:07.489Z,72.73
2023-02-09T21:05:34.840Z,72.72
2023-02-09T21:08:04.511Z,72.81
2023-02-09T21:10:35.880Z,72.61
2023-02-09T21:13:06.107Z,72.63
2023-02-09T21:15:33.075Z,72.80
2023-02-09T21:18:01.013Z,72.70
2023-02-09T21:20:32.168Z,72.85
2023-02-09T21:22:58.997Z,72.88
2023-02-09T21:25:27.759Z,72.87
2023-02-09T21:27:55.972Z,72.63
2023-02-09T21:30:22.820Z,72.86
2023-02-09T21:32:49.627Z,72.92
2023-02-09T21:35:16.716Z,72.88
2023-02-09T21:37:43.400Z,73.08
2023-02-09T21:40:12.500Z,72.89
2023-02-09T21:42:39.928Z,73.08
2023-02-09T21:45:08.025Z,73.02
2023-02-09T21:47:37.835Z,72.90
2023-02-09T21:50:07.043Z,73.14
2023-02-09T21:52:34.712Z,72.99
2023-02-09T21:55:01.541Z,73.18
2023-02-09T21:57:28.311Z,73.26
2023-02-09T21:59:56.720Z,73.00
2023-02-09T22:02:23.571Z,73.16
2023-02-09T22:04:50.702Z,72.71
2023-02-09T22:07:19.710Z,73.24
2023-02-09T22:09:46.920Z,73.32
2023-02-09T22:12:13.633Z,73.36
2023-02-09T22:14:40.370Z,73.17
2023-02-09T22:17:07.119Z,73.05
2023-02-09T22:19:34.056Z,73.06
2023-02-09T22:22:01.815Z,73.38
2023-02-09T22:24:30.098Z,73.04
2023-02-09T22:26:58.237Z,73.08
2023-02-09T22:29:24.956Z,73.25
2023-02-09T22:31:51.744Z,73.02
2023-02-09T22:34:18.592Z,73.22
2023-02-09T22:36:45.895Z,73.10
2023-02-09T22:39:12.970Z,73.12
2023-02-09T22:41:39.776Z,73.32
2023-02-09T22:44:10.202Z,73.43
2023-02-09T22:46:39.303Z,73.22
2023-02-09T22:49:14.661Z,73.53
2023-02-09T22:51:41.440Z,73.39
2023-02-09T22:54:08.145Z,73.38
2023-02-09T22:56:34.951Z,73.38
2023-02-09T22:59:01.892Z,73.55
2023-02-09T23:01:29.569Z,73.57
2023-02-09T23:03:57.331Z,73.58
2023-02-09T23:06:27.255Z,73.94
2023-02-09T23:08:59.513Z,73.78
2023-02-09T23:11:27.187Z,73.98
2023-02-09T23:14:08.400Z,73.81
2023-02-09T23:16:37.107Z,74.16
2023-02-09T23:19:07.003Z,74.21
2023-02-09T23:21:39.439Z,74.22
2023-02-09T23:24:06.669Z,74.08
2023-02-09T23:26:33.888Z,74.01
2023-02-09T23:29:03.817Z,74.11
2023-02-09T23:31:31.334Z,74.37
2023-02-09T23:33:58.146Z,74.49
2023-02-09T23:36:27.831Z,74.35
2023-02-09T23:39:00.118Z,74.65
2023-02-09T23:41:30.142Z,74.56
2023-02-09T23:43:57.359Z,74.69
2023-02-09T23:46:28.604Z,74.63
2023-02-09T23:48:56.397Z,74.88
2023-02-09T23:51:26.839Z,74.64
2023-02-09T23:53:55.368Z,74.84
2023-02-09T23:56:22.801Z,75.17
2023-02-09T23:58:50.942Z,75.34
